Picton, Canada
Current Conditions -  °F | °C
As of 12:00 AM on Thursday 23 Oct 2014 (Local Time) from CYTR Reporting Station
Clear Clear  
Wind Chill: 42°   Ceiling: Unl
Heat Index: 46°   Visibility: 15mi
Dew Point: 45°   Wind: 9mph
Humidity: 93%   Direction: 10°N
Pressure: 30.17"   Gusts: NA
Location:  44.01°N, 77.14°W
Report Text: CYTR 230400Z 01008KT 15SM SKC 08/07 A3017 RMK SLP220
Loading
Personal Weather Stations






























Interactive Weather Map
Tropical Storm Tracking
New forecast layout! Learn more

10-Day Weather Forecast

Advertisements
Track Severe Weather on mobile